createdAt,value
2022-10-02T00:00:01.617Z,27.50
2022-10-02T00:02:35.598Z,28.23
2022-10-02T00:05:08.549Z,26.23
2022-10-02T00:07:42.942Z,27.47
2022-10-02T00:10:17.583Z,24.87
2022-10-02T00:12:49.429Z,28.33
2022-10-02T00:15:25.708Z,25.23
2022-10-02T00:17:58.065Z,25.77
2022-10-02T00:20:35.474Z,26.23
2022-10-02T00:23:09.494Z,25.70
2022-10-02T00:25:47.143Z,26.23
2022-10-02T00:28:24.115Z,24.83
2022-10-02T00:31:20.410Z,23.93
2022-10-02T00:33:59.129Z,28.93
2022-10-02T00:36:38.202Z,23.73
2022-10-02T00:39:18.962Z,28.33
2022-10-02T00:42:19.156Z,26.70
2022-10-02T00:45:17.801Z,28.53
2022-10-02T00:47:54.602Z,28.43
2022-10-02T00:50:35.160Z,23.07
2022-10-02T00:53:28.782Z,22.90
2022-10-02T00:56:14.488Z,26.20
2022-10-02T00:59:02.622Z,24.07
2022-10-02T01:01:41.781Z,26.67
2022-10-02T01:04:14.846Z,23.13
2022-10-02T01:06:43.709Z,22.30
2022-10-02T01:09:13.569Z,29.57
2022-10-02T01:11:42.354Z,23.97
2022-10-02T01:14:11.026Z,22.97
2022-10-02T01:16:42.217Z,22.63
2022-10-02T01:19:26.623Z,22.93
2022-10-02T01:22:00.516Z,26.13
2022-10-02T01:24:35.779Z,26.80
2022-10-02T01:27:05.979Z,26.67
2022-10-02T01:29:34.794Z,27.50
2022-10-02T01:32:03.596Z,23.87
2022-10-02T01:34:34.143Z,24.23
2022-10-02T01:37:03.173Z,22.57
2022-10-02T01:39:33.144Z,24.83
2022-10-02T01:42:02.198Z,24.40
2022-10-02T01:44:33.406Z,25.73
2022-10-02T01:47:06.852Z,26.00
2022-10-02T01:49:48.870Z,25.00
2022-10-02T01:52:36.054Z,27.67
2022-10-02T01:55:23.119Z,26.17
2022-10-02T01:58:01.254Z,26.93
2022-10-02T02:00:43.404Z,29.27
2022-10-02T02:03:18.987Z,26.30
2022-10-02T02:05:52.304Z,24.33
2022-10-02T02:08:30.315Z,27.83
2022-10-02T02:11:09.920Z,25.50
2022-10-02T02:13:46.825Z,28.37
2022-10-02T02:16:24.962Z,26.87
2022-10-02T02:19:01.042Z,27.10
2022-10-02T02:21:33.219Z,27.20
2022-10-02T02:24:05.791Z,27.20
2022-10-02T02:26:35.755Z,25.90
2022-10-02T02:29:14.191Z,23.70
2022-10-02T02:31:50.614Z,26.27
2022-10-02T02:34:23.090Z,26.20
2022-10-02T02:36:57.594Z,26.57
2022-10-02T02:39:34.180Z,26.00
2022-10-02T02:42:06.428Z,29.93
2022-10-02T02:44:39.798Z,30.43
2022-10-02T02:47:14.028Z,27.57
2022-10-02T02:49:51.148Z,27.70
2022-10-02T02:52:26.200Z,26.40
2022-10-02T02:55:01.456Z,26.83
2022-10-02T02:57:35.444Z,27.80
2022-10-02T03:00:07.030Z,27.67
2022-10-02T03:02:37.167Z,32.27
2022-10-02T03:05:16.587Z,33.13
2022-10-02T03:07:50.652Z,30.77
2022-10-02T03:10:26.130Z,32.07
2022-10-02T03:13:09.039Z,28.10
2022-10-02T03:15:47.804Z,28.43
2022-10-02T03:18:41.066Z,27.47
2022-10-02T03:21:15.404Z,31.70
2022-10-02T03:23:57.764Z,33.07
2022-10-02T03:26:32.314Z,31.63
2022-10-02T03:29:04.905Z,32.97
2022-10-02T03:31:35.513Z,30.50
2022-10-02T03:34:06.993Z,31.03
2022-10-02T03:36:35.917Z,31.13
2022-10-02T03:39:24.105Z,36.73
2022-10-02T03:41:54.388Z,35.67
2022-10-02T03:44:23.036Z,30.90
2022-10-02T03:46:51.763Z,29.00
2022-10-02T03:49:21.926Z,30.43
2022-10-02T03:51:50.762Z,30.63
2022-10-02T03:54:21.681Z,48.33
2022-10-02T03:56:57.609Z,24.17
2022-10-02T03:59:36.976Z,26.90
2022-10-02T04:02:13.926Z,28.13
2022-10-02T04:04:47.884Z,30.10
2022-10-02T04:07:23.104Z,31.00
2022-10-02T04:09:58.596Z,28.87
2022-10-02T04:12:32.531Z,30.77
2022-10-02T04:15:06.730Z,30.10
2022-10-02T04:17:44.972Z,29.07
2022-10-02T04:20:22.612Z,28.90
2022-10-02T04:22:54.395Z,32.07
2022-10-02T04:25:25.409Z,29.83
2022-10-02T04:27:58.280Z,28.20
2022-10-02T04:30:27.613Z,29.17
2022-10-02T04:32:59.775Z,31.57
2022-10-02T04:35:38.740Z,30.23
2022-10-02T04:38:29.783Z,29.93
2022-10-02T04:41:14.585Z,31.90
2022-10-02T04:43:58.341Z,29.00
2022-10-02T04:46:48.082Z,29.93
2022-10-02T04:49:28.113Z,32.93
2022-10-02T04:52:10.187Z,29.87
2022-10-02T04:55:03.969Z,44.47
2022-10-02T04:57:56.378Z,26.67
2022-10-02T05:00:27.074Z,29.00
2022-10-02T05:03:25.023Z,28.63
2022-10-02T05:06:16.643Z,27.00
2022-10-02T05:09:08.880Z,51.25
2022-10-02T05:11:54.848Z,33.03
2022-10-02T05:14:53.306Z,28.80
2022-10-02T05:17:41.487Z,29.43
2022-10-02T05:20:43.981Z,26.00
2022-10-02T05:23:25.685Z,31.20
2022-10-02T05:26:21.504Z,28.93
2022-10-02T05:29:11.082Z,31.10
2022-10-02T05:31:50.757Z,29.83
2022-10-02T05:34:40.592Z,28.57
2022-10-02T05:37:35.138Z,30.20
2022-10-02T05:40:11.421Z,28.40
2022-10-02T05:42:48.805Z,30.13
2022-10-02T05:45:25.568Z,51.65
2022-10-02T05:48:02.374Z,33.77
2022-10-02T05:50:35.843Z,29.60
2022-10-02T05:53:09.351Z,29.30
2022-10-02T05:55:42.442Z,25.13
2022-10-02T05:58:19.367Z,25.20
2022-10-02T06:00:52.965Z,21.60
2022-10-02T06:03:27.401Z,23.73
2022-10-02T06:06:07.063Z,23.30
2022-10-02T06:08:41.437Z,25.50
2022-10-02T06:11:15.440Z,24.33
2022-10-02T06:13:51.334Z,23.83
2022-10-02T06:16:24.279Z,25.10
2022-10-02T06:18:57.837Z,23.50
2022-10-02T06:21:34.532Z,24.30
2022-10-02T06:24:07.388Z,26.20
2022-10-02T06:26:43.724Z,25.47
2022-10-02T06:29:23.663Z,26.47
2022-10-02T06:32:05.104Z,21.53
2022-10-02T06:34:33.742Z,20.63
2022-10-02T06:37:21.089Z,20.63
2022-10-02T06:40:12.863Z,22.73
2022-10-02T06:42:51.122Z,27.17
2022-10-02T06:45:32.927Z,23.93
2022-10-02T06:48:07.299Z,24.10
2022-10-02T06:50:52.679Z,28.10
2022-10-02T06:53:38.644Z,20.87
2022-10-02T06:56:24.258Z,21.80
2022-10-02T06:59:04.800Z,24.57
2022-10-02T07:01:50.238Z,21.07
2022-10-02T07:04:47.178Z,19.73
2022-10-02T07:07:31.281Z,19.00
2022-10-02T07:10:26.488Z,18.23
2022-10-02T07:13:17.606Z,21.70
2022-10-02T07:16:12.597Z,20.43
2022-10-02T07:18:58.172Z,19.73
2022-10-02T07:21:35.285Z,16.50
2022-10-02T07:24:32.609Z,18.17
2022-10-02T07:27:09.120Z,20.30
2022-10-02T07:29:50.796Z,19.10
2022-10-02T07:32:42.036Z,18.10
2022-10-02T07:35:38.975Z,22.40
2022-10-02T07:38:43.377Z,23.90
2022-10-02T07:41:45.819Z,24.77
2022-10-02T07:44:31.780Z,22.13
2022-10-02T07:47:09.449Z,26.13
2022-10-02T07:49:52.255Z,17.60
2022-10-02T07:52:32.111Z,19.40
2022-10-02T07:55:09.631Z,20.17
2022-10-02T07:57:49.147Z,19.35
2022-10-02T08:00:19.932Z,24.13
2022-10-02T08:02:53.577Z,23.83
2022-10-02T08:05:26.014Z,26.90
2022-10-02T08:08:01.568Z,24.73
2022-10-02T08:10:35.272Z,32.30
2022-10-02T08:13:12.838Z,26.73
2022-10-02T08:15:45.754Z,23.07
2022-10-02T08:18:34.252Z,30.20
2022-10-02T08:21:05.682Z,24.37
2022-10-02T08:23:40.746Z,23.37
2022-10-02T08:26:14.059Z,18.20
2022-10-02T08:28:50.749Z,20.03
2022-10-02T08:31:19.425Z,19.10
2022-10-02T08:33:48.407Z,20.07
2022-10-02T08:36:37.235Z,20.03
2022-10-02T08:39:22.238Z,20.50
2022-10-02T08:42:20.412Z,17.80
2022-10-02T08:45:24.409Z,18.10
2022-10-02T08:48:26.944Z,17.27
2022-10-02T08:51:44.444Z,16.80
2022-10-02T08:55:04.001Z,17.27
2022-10-02T08:58:13.147Z,20.07
2022-10-02T09:00:59.307Z,17.70
2022-10-02T09:04:00.620Z,17.07
2022-10-02T09:07:01.409Z,16.10
2022-10-02T09:10:08.668Z,21.90
2022-10-02T09:13:18.590Z,60.53
2022-10-02T09:15:54.561Z,40.22
2022-10-02T09:18:46.169Z,30.47
2022-10-02T09:21:20.323Z,19.10
2022-10-02T09:24:21.660Z,21.83
2022-10-02T09:27:27.291Z,22.77
2022-10-02T09:30:32.159Z,27.23
2022-10-02T09:33:55.631Z,48.40
2022-10-02T09:37:00.563Z,50.40
2022-10-02T09:40:12.744Z,47.43
2022-10-02T09:43:07.972Z,42.83
2022-10-02T09:46:11.587Z,46.03
2022-10-02T09:49:21.046Z,28.60
2022-10-02T09:52:18.942Z,28.97
2022-10-02T09:55:19.942Z,28.67
2022-10-02T09:58:27.779Z,37.33
2022-10-02T10:01:18.033Z,31.83
2022-10-02T10:04:33.826Z,36.73
2022-10-02T10:07:52.316Z,35.20
2022-10-02T10:10:53.677Z,23.43
2022-10-02T10:14:03.491Z,30.20
2022-10-02T10:17:09.341Z,24.97
2022-10-02T10:20:21.602Z,20.33
2022-10-02T10:23:06.690Z,11.27
2022-10-02T10:26:15.255Z,13.47
2022-10-02T10:29:40.293Z,24.33
2022-10-02T10:32:43.296Z,12.73
2022-10-02T10:35:29.392Z,12.57
2022-10-02T10:38:33.895Z,18.50
2022-10-02T10:41:33.837Z,19.53
2022-10-02T10:44:50.148Z,16.00
2022-10-02T10:47:45.313Z,18.53
2022-10-02T10:50:42.169Z,20.73
2022-10-02T10:53:40.650Z,18.67
2022-10-02T10:56:47.512Z,17.07
2022-10-02T10:59:47.147Z,24.33
2022-10-02T11:02:59.410Z,22.63
2022-10-02T11:06:07.662Z,28.20
2022-10-02T11:09:05.986Z,22.43
2022-10-02T11:11:46.668Z,15.83
2022-10-02T11:14:28.398Z,13.43
2022-10-02T11:17:41.666Z,16.90
2022-10-02T11:20:54.821Z,10.20
2022-10-02T11:23:39.958Z,15.00
2022-10-02T11:26:43.842Z,14.37
2022-10-02T11:29:54.354Z,16.43
2022-10-02T11:32:55.112Z,13.90
2022-10-02T11:35:30.769Z,13.43
2022-10-02T11:38:22.562Z,15.20
2022-10-02T11:41:20.932Z,13.57
2022-10-02T11:44:06.515Z,79.45
2022-10-02T11:47:08.215Z,27.10
2022-10-02T11:50:25.225Z,15.53
2022-10-02T11:53:35.336Z,15.23
2022-10-02T11:56:36.808Z,98.18
2022-10-02T11:59:23.200Z,31.23
2022-10-02T12:01:56.307Z,21.93
2022-10-02T12:04:43.881Z,20.97
2022-10-02T12:07:36.886Z,18.03
2022-10-02T12:10:20.815Z,22.17
2022-10-02T12:13:00.665Z,22.23
2022-10-02T12:15:41.172Z,28.60
2022-10-02T12:18:25.660Z,42.20
2022-10-02T12:21:22.437Z,20.23
2022-10-02T12:24:15.114Z,29.40
2022-10-02T12:27:04.981Z,33.83
2022-10-02T12:29:43.851Z,15.83
2022-10-02T12:32:24.727Z,27.67
2022-10-02T12:35:07.253Z,30.73
2022-10-02T12:37:44.092Z,10.37
2022-10-02T12:40:26.197Z,12.63
2022-10-02T12:43:13.164Z,11.80
2022-10-02T12:46:10.416Z,10.90
2022-10-02T12:49:04.406Z,9.67
2022-10-02T12:51:49.943Z,11.87
2022-10-02T12:54:45.919Z,11.87
2022-10-02T12:57:46.953Z,11.17
2022-10-02T13:00:18.688Z,10.37
2022-10-02T13:03:35.318Z,11.63
2022-10-02T13:06:46.886Z,9.97
2022-10-02T13:09:29.800Z,9.13
2022-10-02T13:12:15.509Z,45.65
2022-10-02T13:15:16.773Z,10.83
2022-10-02T13:17:53.515Z,11.50
2022-10-02T13:20:31.978Z,9.67
2022-10-02T13:23:09.347Z,8.93
2022-10-02T13:25:55.075Z,10.53
2022-10-02T13:28:42.560Z,9.50
2022-10-02T13:31:23.555Z,9.97
2022-10-02T13:34:08.146Z,9.33
2022-10-02T13:36:51.730Z,9.73
2022-10-02T13:39:38.443Z,11.37
2022-10-02T13:42:31.324Z,11.23
2022-10-02T13:45:10.892Z,10.47
2022-10-02T13:47:45.408Z,12.43
2022-10-02T13:50:24.817Z,13.90
2022-10-02T13:53:12.049Z,12.10
2022-10-02T13:55:46.714Z,11.70
2022-10-02T13:58:36.289Z,13.20
2022-10-02T14:01:15.256Z,19.70
2022-10-02T14:04:04.878Z,20.47
2022-10-02T14:06:40.139Z,38.83
2022-10-02T14:09:23.188Z,28.53
2022-10-02T14:12:09.126Z,37.50
2022-10-02T14:14:57.488Z,21.77
2022-10-02T14:17:37.667Z,15.97
2022-10-02T14:20:24.400Z,19.20
2022-10-02T14:23:08.855Z,25.50
2022-10-02T14:25:50.346Z,12.27
2022-10-02T14:28:36.329Z,12.83
2022-10-02T14:31:36.665Z,16.33
2022-10-02T14:34:27.523Z,14.60
2022-10-02T14:37:03.333Z,11.70
2022-10-02T14:39:38.942Z,19.93
2022-10-02T14:42:23.522Z,30.00
2022-10-02T14:45:18.403Z,21.33
2022-10-02T14:48:00.044Z,16.00
2022-10-02T14:50:50.172Z,14.13
2022-10-02T14:53:59.335Z,12.00
2022-10-02T14:57:16.263Z,12.97
2022-10-02T15:00:17.727Z,21.98
2022-10-02T15:03:11.248Z,25.63
2022-10-02T15:05:48.769Z,22.47
2022-10-02T15:08:23.557Z,26.27
2022-10-02T15:10:55.183Z,21.10
2022-10-02T15:13:36.129Z,25.70
2022-10-02T15:16:32.725Z,24.23
2022-10-02T15:19:17.169Z,20.97
2022-10-02T15:21:51.907Z,21.90
2022-10-02T15:24:31.829Z,17.47
2022-10-02T15:27:15.581Z,16.70
2022-10-02T15:30:00.140Z,15.73
2022-10-02T15:32:46.226Z,14.63
2022-10-02T15:35:29.597Z,16.50
2022-10-02T15:38:29.873Z,13.23
2022-10-02T15:41:19.559Z,16.13
2022-10-02T15:44:00.998Z,18.60
2022-10-02T15:46:38.907Z,13.50
2022-10-02T15:49:20.067Z,13.07
2022-10-02T15:52:03.049Z,51.03
2022-10-02T15:54:47.919Z,14.87
2022-10-02T15:57:49.252Z,13.77
2022-10-02T16:00:19.913Z,12.93
2022-10-02T16:03:13.895Z,17.00
2022-10-02T16:05:59.004Z,15.03
2022-10-02T16:09:02.702Z,18.27
2022-10-02T16:11:50.066Z,13.23
2022-10-02T16:14:32.913Z,23.40
2022-10-02T16:17:16.135Z,40.75
2022-10-02T16:20:26.940Z,18.97
2022-10-02T16:23:26.504Z,21.77
2022-10-02T16:26:16.891Z,21.67
2022-10-02T16:29:04.961Z,23.97
2022-10-02T16:31:46.724Z,22.50
2022-10-02T16:34:29.800Z,23.43
2022-10-02T16:37:04.495Z,24.17
2022-10-02T16:39:54.711Z,21.67
2022-10-02T16:42:35.410Z,25.90
2022-10-02T16:45:24.019Z,24.50
2022-10-02T16:47:57.277Z,23.37
2022-10-02T16:50:30.615Z,25.50
2022-10-02T16:53:05.298Z,25.73
2022-10-02T16:55:37.710Z,25.70
2022-10-02T16:58:24.535Z,27.33
2022-10-02T17:00:57.832Z,22.87
2022-10-02T17:03:33.846Z,24.33
2022-10-02T17:06:08.825Z,26.63
2022-10-02T17:08:44.784Z,22.87
2022-10-02T17:11:23.199Z,24.87
2022-10-02T17:14:06.549Z,30.92
2022-10-02T17:16:41.587Z,39.50
2022-10-02T17:19:29.823Z,43.67
2022-10-02T17:22:04.875Z,44.13
2022-10-02T17:24:40.363Z,33.05
2022-10-02T17:27:19.619Z,38.08
2022-10-02T17:29:56.119Z,34.10
2022-10-02T17:32:49.627Z,35.17
2022-10-02T17:35:28.097Z,34.07
2022-10-02T17:38:17.887Z,33.70
2022-10-02T17:40:55.970Z,34.13
2022-10-02T17:43:31.898Z,32.90
2022-10-02T17:46:35.820Z,32.83
2022-10-02T17:49:10.160Z,36.83
2022-10-02T17:51:53.474Z,41.13
2022-10-02T17:55:05.929Z,43.63
2022-10-02T17:57:53.802Z,59.30
2022-10-02T18:00:26.351Z,55.70
2022-10-02T18:03:12.297Z,55.53
2022-10-02T18:05:52.698Z,53.23
2022-10-02T18:08:38.976Z,45.07
2022-10-02T18:11:11.145Z,39.88
2022-10-02T18:13:58.675Z,34.87
2022-10-02T18:16:38.871Z,38.10
2022-10-02T18:19:27.911Z,38.93
2022-10-02T18:22:16.570Z,36.03
2022-10-02T18:25:14.562Z,34.03
2022-10-02T18:27:59.769Z,33.17
2022-10-02T18:30:40.327Z,34.57
2022-10-02T18:33:33.797Z,33.03
2022-10-02T18:36:35.050Z,39.33
2022-10-02T18:39:17.524Z,44.20
2022-10-02T18:41:57.329Z,38.23
2022-10-02T18:44:45.268Z,36.00
2022-10-02T18:47:31.414Z,35.50
2022-10-02T18:50:12.897Z,31.13
2022-10-02T18:53:08.787Z,33.50
2022-10-02T18:56:03.342Z,32.63
2022-10-02T18:58:50.622Z,33.13
2022-10-02T19:01:45.886Z,32.60
2022-10-02T19:04:40.525Z,58.10
2022-10-02T19:07:13.581Z,55.40
2022-10-02T19:09:42.811Z,49.93
2022-10-02T19:12:17.300Z,47.43
2022-10-02T19:14:47.158Z,50.53
2022-10-02T19:17:18.199Z,49.10
2022-10-02T19:19:48.175Z,45.33
2022-10-02T19:22:21.133Z,37.30
2022-10-02T19:24:53.367Z,32.90
2022-10-02T19:27:28.393Z,34.47
2022-10-02T19:29:59.821Z,34.17
2022-10-02T19:32:32.065Z,28.00
2022-10-02T19:35:07.716Z,25.07
2022-10-02T19:37:42.959Z,25.07
2022-10-02T19:40:19.369Z,24.03
2022-10-02T19:42:50.716Z,23.77
2022-10-02T19:45:26.999Z,46.27
2022-10-02T19:47:59.940Z,54.07
2022-10-02T19:50:40.153Z,55.53
2022-10-02T19:53:17.152Z,74.33
2022-10-02T19:55:47.418Z,57.70
2022-10-02T19:58:21.489Z,74.37
2022-10-02T20:00:52.064Z,58.20
2022-10-02T20:03:23.260Z,46.93
2022-10-02T20:06:02.357Z,60.33
2022-10-02T20:08:34.846Z,53.93
2022-10-02T20:11:09.381Z,51.10
2022-10-02T20:13:43.770Z,49.47
2022-10-02T20:16:37.135Z,50.23
2022-10-02T20:19:07.814Z,51.23
2022-10-02T20:21:42.080Z,62.17
2022-10-02T20:24:18.923Z,59.07
2022-10-02T20:26:50.357Z,53.73
2022-10-02T20:29:22.341Z,50.90
2022-10-02T20:31:54.496Z,46.23
2022-10-02T20:34:27.759Z,53.90
2022-10-02T20:37:04.862Z,58.13
2022-10-02T20:39:38.743Z,55.77
2022-10-02T20:42:14.914Z,62.23
2022-10-02T20:44:43.781Z,58.60
2022-10-02T20:47:42.213Z,51.57
2022-10-02T20:50:31.538Z,49.33
2022-10-02T20:53:44.636Z,47.13
2022-10-02T20:56:26.419Z,42.43
2022-10-02T20:59:17.342Z,42.40
2022-10-02T21:02:00.865Z,48.57
2022-10-02T21:05:00.090Z,55.63
2022-10-02T21:08:03.743Z,50.40
2022-10-02T21:11:13.515Z,59.07
2022-10-02T21:14:18.061Z,50.50
2022-10-02T21:17:16.798Z,51.83
2022-10-02T21:20:16.666Z,43.00
2022-10-02T21:23:29.371Z,37.00
2022-10-02T21:26:40.756Z,43.55
2022-10-02T21:29:30.933Z,44.23
2022-10-02T21:32:26.670Z,45.33
2022-10-02T21:35:07.887Z,51.47
2022-10-02T21:37:48.645Z,47.77
2022-10-02T21:40:48.614Z,53.13
2022-10-02T21:44:00.310Z,36.50
2022-10-02T21:47:10.537Z,30.97
2022-10-02T21:50:04.038Z,31.30
2022-10-02T21:53:04.410Z,30.37
2022-10-02T21:56:19.828Z,24.80
2022-10-02T21:59:23.628Z,19.20
2022-10-02T22:02:23.423Z,20.97
2022-10-02T22:05:14.570Z,19.57
2022-10-02T22:07:49.699Z,22.77
2022-10-02T22:10:26.880Z,32.10
2022-10-02T22:13:11.299Z,26.10
2022-10-02T22:15:45.937Z,28.40
2022-10-02T22:18:24.333Z,40.17
2022-10-02T22:21:04.600Z,49.73
2022-10-02T22:24:07.697Z,56.20
2022-10-02T22:26:58.247Z,20.17
2022-10-02T22:29:39.689Z,41.23
2022-10-02T22:32:49.207Z,42.90
2022-10-02T22:35:28.750Z,30.47
2022-10-02T22:38:10.053Z,38.53
2022-10-02T22:40:48.389Z,46.27
2022-10-02T22:43:30.496Z,48.10
2022-10-02T22:46:04.335Z,43.27
2022-10-02T22:48:41.117Z,46.23
2022-10-02T22:51:20.556Z,46.93
2022-10-02T22:53:54.131Z,46.93
2022-10-02T22:56:30.466Z,57.90
2022-10-02T22:59:08.108Z,58.00
2022-10-02T23:01:45.991Z,44.43
2022-10-02T23:04:23.389Z,43.23
2022-10-02T23:07:02.404Z,45.53
2022-10-02T23:09:41.000Z,58.50
2022-10-02T23:12:14.999Z,50.30
2022-10-02T23:15:00.401Z,65.80
2022-10-02T23:17:38.451Z,64.23
2022-10-02T23:20:14.700Z,55.90
2022-10-02T23:22:53.796Z,50.10
2022-10-02T23:25:32.191Z,57.17
2022-10-02T23:28:06.153Z,61.20
2022-10-02T23:30:40.192Z,59.97
2022-10-02T23:33:23.400Z,52.17
2022-10-02T23:35:57.832Z,68.67
2022-10-02T23:38:35.661Z,65.53
2022-10-02T23:41:26.632Z,74.80
2022-10-02T23:44:05.947Z,53.73
2022-10-02T23:46:54.202Z,62.87
2022-10-02T23:49:25.483Z,42.80
2022-10-02T23:52:00.058Z,58.27
2022-10-02T23:54:50.203Z,56.93
2022-10-02T23:57:45.272Z,45.20
